Time;durP1;ratioP1;P1;durP2;ratioP2;P2;SDS_P1;SDS_P2;PMS_P1;PMS_P2;Temp;Humidity;BMP_temperature;BMP_pressure;BME280_temperature;BME280_humidity;BME280_pressure;Samples;Min_cycle;Max_cycle;Signal;HPM_P1;HPM_P2
2021/05/28 00:01:54;;;;;;;;;;;;;;;20.97;71.19;100538.09;5013281;28;1527;-48
2021/05/28 00:04:21;;;;;;;;;;;;;;;20.97;70.29;100554.22;5023527;28;1465;-49
2021/05/28 00:06:47;;;;;;;;;;;;;;;20.98;71.47;100544.28;5015177;28;1163;-47
2021/05/28 00:09:13;;;;;;;;;;;;;;;20.97;70.88;100530.03;5025605;28;1812;-48
2021/05/28 00:11:39;;;;;;;;;;;;;;;20.94;71.63;100530.31;5026578;28;1906;-48
2021/05/28 00:14:06;;;;;;;;;;;;;;;20.93;71.82;100520.56;5017769;28;1626;-48
2021/05/28 00:16:31;;;;;;;;;;;;;;;20.92;72.72;100521.56;5020354;28;1256;-48
2021/05/28 00:18:57;;;;;;;;;;;;;;;20.95;72.97;100510.50;5019448;28;1574;-48
2021/05/28 00:21:24;;;;;;;;;;;;;;;20.93;73.40;100528.63;5019537;28;1689;-48
2021/05/28 00:23:50;;;;;;;;;;;;;;;20.90;74.12;100539.69;5014977;28;1301;-48
2021/05/28 00:26:16;;;;;;;;;;;;;;;20.90;74.19;100539.69;5019662;28;2001;-48
2021/05/28 00:28:47;;;;;;;;;;;;;;;20.90;74.00;100534.31;5017782;28;1677;-48
2021/05/28 00:31:13;;;;;;;;;;;;;;;20.90;73.65;100544.22;5022651;28;1910;-48
2021/05/28 00:33:39;;;;;;;;;;;;;;;20.87;73.58;100531.94;5015864;28;1465;-47
2021/05/28 00:36:05;;;;;;;;;;;;;;;20.89;72.75;100529.09;5014298;28;1633;-48
2021/05/28 00:38:32;;;;;;;;;;;;;;;20.89;72.43;100532.63;5014701;28;1375;-47
2021/05/28 00:40:58;;;;;;;;;;;;;;;20.86;73.63;100527.56;5013781;28;1630;-47
2021/05/28 00:43:24;;;;;;;;;;;;;;;20.88;74.11;100516.66;5014308;28;1669;-47
2021/05/28 00:45:50;;;;;;;;;;;;;;;20.88;73.55;100524.72;5019236;28;1625;-48
2021/05/28 00:48:16;;;;;;;;;;;;;;;20.83;73.43;100517.09;5022936;28;1669;-48
2021/05/28 00:50:42;;;;;;;;;;;;;;;20.83;73.95;100509.03;5020729;28;1989;-48
2021/05/28 00:53:09;;;;;;;;;;;;;;;20.80;73.46;100491.38;5015987;28;1288;-48
2021/05/28 00:55:35;;;;;;;;;;;;;;;20.81;72.93;100490.41;5018505;28;1582;-47
2021/05/28 00:58:02;;;;;;;;;;;;;;;20.79;73.18;100494.22;5021941;28;1819;-47
2021/05/28 01:00:28;;;;;;;;;;;;;;;20.82;74.75;100510.06;5015561;28;1484;-48
2021/05/28 01:02:54;;;;;;;;;;;;;;;20.82;74.63;100512.72;5021760;28;1418;-47
2021/05/28 01:05:21;;;;;;;;;;;;;;;20.80;74.87;100490.53;5013153;28;1878;-48
2021/05/28 01:07:47;;;;;;;;;;;;;;;20.78;74.27;100503.28;5024842;28;1301;-48
2021/05/28 01:10:14;;;;;;;;;;;;;;;20.77;74.33;100501.59;5015630;28;1975;-48
2021/05/28 01:12:40;;;;;;;;;;;;;;;20.79;74.74;100513.03;5013606;28;1869;-47
2021/05/28 01:15:07;;;;;;;;;;;;;;;20.78;74.45;100511.34;5013386;28;1301;-48
2021/05/28 01:17:33;;;;;;;;;;;;;;;20.76;73.88;100513.34;5019585;28;1787;-48
2021/05/28 01:20:00;;;;;;;;;;;;;;;20.77;73.87;100523.97;5016900;28;1418;-47
2021/05/28 01:22:27;;;;;;;;;;;;;;;20.75;74.71;100519.72;5013386;28;1451;-47
2021/05/28 01:24:52;;;;;;;;;;;;;;;20.76;74.07;100521.41;5015625;28;1697;-48
2021/05/28 01:27:19;;;;;;;;;;;;;;;20.76;74.00;100516.03;5019156;28;1680;-48
2021/05/28 01:29:45;;;;;;;;;;;;;;;20.77;73.63;100512.34;5018865;28;1412;-48
2021/05/28 01:32:11;;;;;;;;;;;;;;;20.77;73.77;100510.53;5013186;28;1961;-48
2021/05/28 01:34:37;;;;;;;;;;;;;;;20.76;74.26;100516.88;5013414;28;1151;-47
2021/05/28 01:37:03;;;;;;;;;;;;;;;20.76;74.54;100522.25;5023452;28;1757;-47
2021/05/28 01:39:30;;;;;;;;;;;;;;;20.78;74.58;100519.41;5012134;28;1986;-48
2021/05/28 01:41:56;;;;;;;;;;;;;;;20.80;73.23;100506.66;5021313;28;1502;-48
2021/05/28 01:44:22;;;;;;;;;;;;;;;20.79;73.61;100510.34;5021458;28;1068;-47
2021/05/28 01:46:49;;;;;;;;;;;;;;;20.77;73.63;100512.34;5019101;28;1748;-47
2021/05/28 01:49:15;;;;;;;;;;;;;;;20.77;73.22;100513.22;5015109;28;1435;-49
2021/05/28 01:51:48;;;;;;;;;;;;;;;20.79;72.90;100529.16;5022568;28;1977;-47
2021/05/28 01:54:14;;;;;;;;;;;;;;;20.76;73.48;100538.38;5013824;28;1731;-49
2021/05/28 01:56:44;;;;;;;;;;;;;;;20.76;73.07;100533.00;5017424;28;1361;-48
2021/05/28 01:59:13;;;;;;;;;;;;;;;20.75;73.03;100517.03;5022320;28;1573;-47
2021/05/28 02:01:39;;;;;;;;;;;;;;;20.76;73.05;100524.94;5037643;22;3624;-76
2021/05/28 02:04:05;;;;;;;;;;;;;;;20.74;73.25;100507.28;5042754;28;1423;-76
2021/05/28 02:06:31;;;;;;;;;;;;;;;20.71;73.69;100495.00;5046742;28;1232;-77
2021/05/28 02:08:57;;;;;;;;;;;;;;;20.74;73.60;100499.22;5036454;22;3650;-47
2021/05/28 02:11:23;;;;;;;;;;;;;;;20.71;72.88;100499.53;5013776;28;1942;-48
2021/05/28 02:13:50;;;;;;;;;;;;;;;20.74;73.62;100493.84;5013487;28;1430;-48
2021/05/28 02:16:16;;;;;;;;;;;;;;;20.70;73.56;100501.38;5013037;28;1649;-48
2021/05/28 02:18:42;;;;;;;;;;;;;;;20.71;74.38;100503.06;5012579;28;1818;-47
2021/05/28 02:21:08;;;;;;;;;;;;;;;20.74;73.59;100501.91;5012250;28;1431;-47
2021/05/28 02:23:34;;;;;;;;;;;;;;;20.72;74.35;100496.69;5015234;28;1706;-48
2021/05/28 02:26:00;;;;;;;;;;;;;;;20.69;73.35;100498.81;5013577;28;1446;-47
2021/05/28 02:28:26;;;;;;;;;;;;;;;20.70;73.89;100493.31;5013332;28;1662;-47
2021/05/28 02:30:54;;;;;;;;;;;;;;;20.70;73.91;100497.84;5011963;28;1910;-51
2021/05/28 02:33:20;;;;;;;;;;;;;;;20.70;73.79;100487.09;5014652;28;1376;-47
2021/05/28 02:35:46;;;;;;;;;;;;;;;20.69;73.27;100478.19;5009783;28;1570;-47
2021/05/28 02:38:12;;;;;;;;;;;;;;;20.68;73.67;100481.88;5015320;28;1492;-47
2021/05/28 02:40:38;;;;;;;;;;;;;;;20.66;73.37;100478.50;5008527;28;1785;-47
2021/05/28 02:43:04;;;;;;;;;;;;;;;20.69;73.95;100498.81;5005968;28;1609;-47
2021/05/28 02:45:30;;;;;;;;;;;;;;;20.65;73.76;100484.84;5013897;28;1622;-47
2021/05/28 02:47:58;;;;;;;;;;;;;;;20.66;74.22;100482.00;5011623;28;1587;-47
2021/05/28 02:50:24;;;;;;;;;;;;;;;20.65;73.76;100493.78;5012792;28;1910;-47
2021/05/28 02:52:50;;;;;;;;;;;;;;;20.67;73.57;100490.91;5015001;28;1306;-47
2021/05/28 02:55:16;;;;;;;;;;;;;;;20.65;73.05;100499.16;5013148;28;1435;-47
2021/05/28 02:57:42;;;;;;;;;;;;;;;20.68;72.70;100502.53;5015765;28;1926;-47
2021/05/28 03:00:09;;;;;;;;;;;;;;;20.66;72.90;100476.63;5012516;28;1388;-47
2021/05/28 03:02:35;;;;;;;;;;;;;;;20.66;73.18;100495.44;5005070;28;1771;-47
2021/05/28 03:05:02;;;;;;;;;;;;;;;20.67;72.74;100496.28;5004191;28;1958;-47
2021/05/28 03:07:28;;;;;;;;;;;;;;;20.70;72.85;100505.91;5005679;28;1084;-47
2021/05/28 03:09:54;;;;;;;;;;;;;;;20.65;73.03;100493.78;4998418;28;1611;-48
2021/05/28 03:12:20;;;;;;;;;;;;;;;20.70;73.17;100503.22;5002254;28;1906;-48
2021/05/28 03:14:46;;;;;;;;;;;;;;;20.70;73.17;100504.06;5004681;28;1468;-48
2021/05/28 03:17:12;;;;;;;;;;;;;;;20.69;73.28;100493.44;5008180;28;1544;-48
2021/05/28 03:19:42;;;;;;;;;;;;;;;20.70;73.27;100500.53;5006053;28;1084;-47
2021/05/28 03:24:53;;;;;;;;;;;;;;;20.69;73.06;100498.81;5012770;28;1951;-48
2021/05/28 03:27:19;;;;;;;;;;;;;;;20.78;72.59;100512.19;5019114;28;1679;-47
2021/05/28 03:29:45;;;;;;;;;;;;;;;20.76;72.87;100507.97;5004505;28;1785;-48
2021/05/28 03:32:11;;;;;;;;;;;;;;;20.76;72.22;100503.44;5005156;28;1910;-49
2021/05/28 03:34:37;;;;;;;;;;;;;;;20.74;72.06;100502.75;4996137;28;1458;-47
2021/05/28 03:37:03;;;;;;;;;;;;;;;20.76;72.90;100505.28;5011979;28;1575;-47
2021/05/28 03:39:30;;;;;;;;;;;;;;;20.83;72.49;100506.34;4995962;28;1953;-46
2021/05/28 03:41:56;;;;;;;;;;;;;;;20.88;72.09;100500.53;5004288;28;1614;-48
2021/05/28 03:44:22;;;;;;;;;;;;;;;20.90;72.70;100520.03;5006915;28;1447;-47
2021/05/28 03:46:48;;;;;;;;;;;;;;;20.90;71.78;100499.38;5002213;28;1621;-47
2021/05/28 03:49:14;;;;;;;;;;;;;;;20.85;71.55;100515.13;5011867;28;1826;-47
2021/05/28 03:51:40;;;;;;;;;;;;;;;20.84;71.76;100510.75;5012466;28;1977;-47
2021/05/28 03:54:06;;;;;;;;;;;;;;;20.88;72.24;100514.81;5013907;28;1305;-47
2021/05/28 03:56:33;;;;;;;;;;;;;;;20.99;72.75;100521.78;5012037;28;2003;-42
2021/05/28 03:58:59;;;;;;;;;;;;;;;21.01;72.00;100522.50;5011891;28;1733;-47
2021/05/28 04:01:25;;;;;;;;;;;;;;;20.96;72.24;100516.72;5014242;28;1760;-47
2021/05/28 04:03:51;;;;;;;;;;;;;;;20.96;71.74;100517.56;5011720;28;1453;-47
2021/05/28 04:06:17;;;;;;;;;;;;;;;20.90;71.80;100510.13;5014878;28;1516;-48
2021/05/28 04:08:43;;;;;;;;;;;;;;;20.92;71.57;100523.41;5014951;28;1657;-46
2021/05/28 04:11:09;;;;;;;;;;;;;;;20.93;72.09;100515.19;5011821;28;2033;-47
2021/05/28 04:13:36;;;;;;;;;;;;;;;20.91;72.19;100493.00;5011090;28;1512;-47
2021/05/28 04:16:02;;;;;;;;;;;;;;;20.88;72.00;100517.50;5012248;28;1493;-47
2021/05/28 04:18:28;;;;;;;;;;;;;;;20.94;72.96;100519.56;5010676;28;1417;-47
2021/05/28 04:20:54;;;;;;;;;;;;;;;20.88;72.10;100501.38;5010358;28;1550;-48
2021/05/28 04:23:20;;;;;;;;;;;;;;;20.86;72.23;100495.31;5012993;28;1539;-47
2021/05/28 04:25:46;;;;;;;;;;;;;;;20.89;73.60;100511.13;5010199;28;1558;-47
2021/05/28 04:28:12;;;;;;;;;;;;;;;20.87;73.08;100515.81;5010853;28;1598;-48
2021/05/28 04:30:39;;;;;;;;;;;;;;;20.87;72.82;100502.38;5010598;28;1903;-48
2021/05/28 04:33:05;;;;;;;;;;;;;;;20.84;72.78;100506.19;5009875;28;1435;-47
2021/05/28 04:35:31;;;;;;;;;;;;;;;20.89;72.10;100513.81;5011513;28;1502;-48
2021/05/28 04:37:57;;;;;;;;;;;;;;;20.90;72.28;100517.34;5012337;28;1431;-48
2021/05/28 04:40:23;;;;;;;;;;;;;;;20.89;73.11;100505.75;5011508;28;1600;-48
2021/05/28 04:42:49;;;;;;;;;;;;;;;20.90;72.79;100511.97;5010220;28;1423;-47
2021/05/28 04:45:15;;;;;;;;;;;;;;;20.90;72.60;100498.53;5008963;28;1495;-48
2021/05/28 04:47:42;;;;;;;;;;;;;;;20.94;73.16;100514.19;5008973;28;1426;-48
2021/05/28 04:50:08;;;;;;;;;;;;;;;20.93;72.65;100507.13;5008032;28;1596;-48
2021/05/28 04:52:34;;;;;;;;;;;;;;;20.90;72.14;100512.81;5010139;28;1974;-47
2021/05/28 04:55:00;;;;;;;;;;;;;;;20.97;72.46;100510.34;5012070;28;1556;-47
2021/05/28 04:57:26;;;;;;;;;;;;;;;20.96;73.81;100511.34;5011982;28;1421;-47
2021/05/28 04:59:52;;;;;;;;;;;;;;;21.04;72.73;100525.69;5011865;28;1453;-48
2021/05/28 05:02:18;;;;;;;;;;;;;;;21.01;73.52;100512.59;5012203;28;1609;-47
2021/05/28 05:04:45;;;;;;;;;;;;;;;20.96;73.91;100516.72;5009918;28;1656;-47
2021/05/28 05:07:11;;;;;;;;;;;;;;;20.91;73.16;100519.03;5006990;28;1533;-47
2021/05/28 05:09:37;;;;;;;;;;;;;;;20.87;73.22;100515.81;5009219;28;1663;-47
2021/05/28 05:12:04;;;;;;;;;;;;;;;20.90;73.09;100531.63;5010698;28;1910;-48
2021/05/28 05:14:31;;;;;;;;;;;;;;;20.98;74.57;100501.28;5008620;28;1439;-49
2021/05/28 05:16:57;;;;;;;;;;;;;;;21.05;74.14;100531.94;5008622;28;1990;-47
2021/05/28 05:19:23;;;;;;;;;;;;;;;21.02;74.55;100521.47;5010158;28;1779;-47
2021/05/28 05:21:52;;;;;;;;;;;;;;;21.13;73.49;100509.63;5010487;28;1546;-47
2021/05/28 05:24:19;;;;;;;;;;;;;;;21.16;74.16;100536.22;5012141;28;1272;-47
2021/05/28 05:26:45;;;;;;;;;;;;;;;21.22;73.79;100538.28;5011224;28;1275;-48
2021/05/28 05:29:11;;;;;;;;;;;;;;;21.21;73.76;100531.22;5010273;28;1732;-48
2021/05/28 05:31:39;;;;;;;;;;;;;;;21.18;73.44;100531.53;5009518;28;1914;-48
2021/05/28 05:34:05;;;;;;;;;;;;;;;21.22;73.41;100532.91;5008103;28;2677;-47
2021/05/28 05:36:33;;;;;;;;;;;;;;;21.22;73.71;100535.59;5011792;28;1750;-48
2021/05/28 05:38:59;;;;;;;;;;;;;;;21.22;74.26;100528.38;5013364;28;1338;-48
2021/05/28 05:41:25;;;;;;;;;;;;;;;21.19;73.78;100522.47;5016650;28;1544;-49
2021/05/28 05:43:52;;;;;;;;;;;;;;;21.20;73.79;100524.16;5005769;28;10876;-46
2021/05/28 05:46:18;;;;;;;;;;;;;;;21.23;73.73;100505.88;5013532;28;1991;-48
2021/05/28 05:48:44;;;;;;;;;;;;;;;21.26;73.32;100484.03;5010503;28;2140;-48
2021/05/28 05:51:10;;;;;;;;;;;;;;;21.27;74.47;100498.34;5010557;28;1965;-48
2021/05/28 05:53:36;;;;;;;;;;;;;;;21.25;73.78;100513.78;5023053;28;1615;-48
2021/05/28 05:56:04;;;;;;;;;;;;;;;21.22;73.91;100525.69;5010071;28;1632;-48
2021/05/28 05:58:30;;;;;;;;;;;;;;;21.27;73.68;100503.72;5010849;28;1623;-41
2021/05/28 06:00:56;;;;;;;;;;;;;;;21.32;74.58;100532.81;5013699;28;1553;-49
2021/05/28 06:03:22;;;;;;;;;;;;;;;21.20;74.29;100508.00;5007325;28;1626;-49
2021/05/28 06:05:48;;;;;;;;;;;;;;;21.14;75.70;100520.22;5010466;28;1628;-48
2021/05/28 06:08:14;;;;;;;;;;;;;;;21.11;76.95;100499.06;5012739;28;1366;-49
2021/05/28 06:10:40;;;;;;;;;;;;;;;21.04;76.20;100520.31;5008149;28;1985;-48
2021/05/28 06:13:08;;;;;;;;;;;;;;;21.11;76.65;100517.00;5010564;28;1797;-49
2021/05/28 06:15:34;;;;;;;;;;;;;;;21.03;81.59;100517.81;5008724;28;2088;-49
2021/05/28 06:18:00;;;;;;;;;;;;;;;20.94;81.32;100511.50;5008511;28;1629;-49
2021/05/28 06:20:26;;;;;;;;;;;;;;;20.93;78.47;100517.88;5009513;28;2050;-49
2021/05/28 06:22:52;;;;;;;;;;;;;;;21.13;77.88;100523.06;5013133;28;1508;-48
2021/05/28 06:25:18;;;;;;;;;;;;;;;21.27;76.69;100509.09;5008675;28;1582;-48
2021/05/28 06:27:44;;;;;;;;;;;;;;;21.13;79.06;100523.94;5008581;28;1572;-49
2021/05/28 06:30:12;;;;;;;;;;;;;;;21.09;79.17;100535.13;5009280;28;1601;-49
2021/05/28 06:32:38;;;;;;;;;;;;;;;20.99;77.93;100525.34;5008420;28;1926;-49
2021/05/28 06:35:05;;;;;;;;;;;;;;;21.09;77.96;100519.00;5007771;28;2128;-49
2021/05/28 06:37:31;;;;;;;;;;;;;;;21.09;75.80;100524.38;5010855;28;1540;-50
2021/05/28 06:39:57;;;;;;;;;;;;;;;21.04;77.22;100528.38;5009713;28;1445;-49
2021/05/28 06:42:23;;;;;;;;;;;;;;;20.98;78.49;100528.16;5013280;28;1551;-48
2021/05/28 06:44:49;;;;;;;;;;;;;;;20.93;78.59;100525.94;5016140;28;1700;-48
2021/05/28 06:47:17;;;;;;;;;;;;;;;20.94;79.73;100530.31;5010361;28;1515;-48
2021/05/28 06:49:43;;;;;;;;;;;;;;;20.99;76.83;100530.72;5006402;28;1273;-48
2021/05/28 06:52:09;;;;;;;;;;;;;;;21.04;76.17;100528.38;5016471;28;1983;-47
2021/05/28 06:54:36;;;;;;;;;;;;;;;20.98;75.79;100526.31;5007312;28;1445;-48
2021/05/28 06:57:01;;;;;;;;;;;;;;;20.93;75.33;100523.25;5016785;28;1491;-49
2021/05/28 06:59:27;;;;;;;;;;;;;;;20.88;75.29;100530.09;5008975;28;1575;-49
2021/05/28 07:01:54;;;;;;;;;;;;;;;20.80;74.58;100525.47;5009343;28;1473;-48
2021/05/28 07:04:21;;;;;;;;;;;;;;;20.86;75.20;100524.88;5011763;28;1460;-49
2021/05/28 07:06:47;;;;;;;;;;;;;;;20.88;76.93;100520.19;5013810;28;1678;-48
2021/05/28 07:09:13;;;;;;;;;;;;;;;20.80;75.30;100533.53;5013651;28;1673;-48
2021/05/28 07:11:40;;;;;;;;;;;;;;;20.80;75.15;100523.63;5001825;28;1972;-47
2021/05/28 07:14:06;;;;;;;;;;;;;;;20.78;74.57;100527.47;5002209;28;1606;-49
2021/05/28 07:16:32;;;;;;;;;;;;;;;20.88;75.25;100528.25;5016055;28;1594;-48
2021/05/28 07:18:58;;;;;;;;;;;;;;;20.91;74.76;100536.00;5012909;28;1789;-48
2021/05/28 07:21:25;;;;;;;;;;;;;;;20.84;74.23;100541.13;5014409;28;1670;-49
2021/05/28 07:23:51;;;;;;;;;;;;;;;20.86;75.12;100539.13;5007828;28;1446;-49
2021/05/28 07:26:17;;;;;;;;;;;;;;;20.93;74.98;100536.72;5006614;28;1947;-48
2021/05/28 07:28:43;;;;;;;;;;;;;;;20.95;73.00;100537.41;5012906;28;1756;-47
2021/05/28 07:31:10;;;;;;;;;;;;;;;20.90;73.45;100520.88;5016846;28;1902;-47
2021/05/28 07:33:37;;;;;;;;;;;;;;;20.95;73.07;100536.53;5010894;28;1532;-47
2021/05/28 07:36:03;;;;;;;;;;;;;;;20.98;74.13;100542.44;5010881;28;1758;-48
2021/05/28 07:38:30;;;;;;;;;;;;;;;21.08;74.15;100554.97;5009765;28;1186;-49
2021/05/28 07:40:56;;;;;;;;;;;;;;;21.05;73.90;100538.16;5011231;28;1644;-48
2021/05/28 07:43:22;;;;;;;;;;;;;;;21.02;74.05;100548.38;5011916;28;1640;-47
2021/05/28 07:45:50;;;;;;;;;;;;;;;21.07;73.81;100516.50;5014328;28;1519;-49
2021/05/28 07:48:16;;;;;;;;;;;;;;;21.13;73.83;100539.22;5011127;28;1605;-50
2021/05/28 07:50:48;;;;;;;;;;;;;;;21.11;74.37;100535.81;5012572;28;1899;-48
2021/05/28 07:53:15;;;;;;;;;;;;;;;20.99;73.29;100545.97;5008893;28;1409;-48
2021/05/28 07:55:42;;;;;;;;;;;;;;;20.85;74.10;100564.34;5008808;28;1907;-48
2021/05/28 07:58:08;;;;;;;;;;;;;;;20.70;74.18;100567.72;5013628;28;1812;-49
2021/05/28 08:00:34;;;;;;;;;;;;;;;20.76;73.18;100551.81;5011749;28;1937;-49
2021/05/28 08:03:01;;;;;;;;;;;;;;;20.74;73.66;100563.72;5011312;28;1469;-49
2021/05/28 08:05:27;;;;;;;;;;;;;;;20.73;72.96;100560.19;5009794;28;1512;-49
2021/05/28 08:07:59;;;;;;;;;;;;;;;20.73;72.33;100564.69;5003824;28;1439;-51
2021/05/28 08:10:26;;;;;;;;;;;;;;;20.70;72.61;100556.97;5005524;28;1555;-49
2021/05/28 08:12:53;;;;;;;;;;;;;;;20.69;72.83;100556.13;5010186;28;1985;-49
2021/05/28 08:15:19;;;;;;;;;;;;;;;20.68;72.35;100569.69;5010687;28;1760;-49
2021/05/28 08:17:46;;;;;;;;;;;;;;;20.65;73.19;100566.31;5009657;28;1493;-49
2021/05/28 08:20:12;;;;;;;;;;;;;;;20.64;73.23;100578.06;5011360;28;1399;-48
2021/05/28 08:22:38;;;;;;;;;;;;;;;20.66;73.26;100581.44;5010913;28;1357;-49
2021/05/28 08:25:04;;;;;;;;;;;;;;;20.66;72.68;100585.97;5011290;28;1484;-49
2021/05/28 08:27:31;;;;;;;;;;;;;;;20.66;73.08;100591.34;5010547;28;1538;-49
2021/05/28 08:29:57;;;;;;;;;;;;;;;20.65;72.37;100587.81;5011188;28;1421;-49
2021/05/28 08:32:23;;;;;;;;;;;;;;;20.62;72.93;100587.25;5010010;28;1909;-50
2021/05/28 08:34:49;;;;;;;;;;;;;;;20.63;73.17;100589.81;5009840;28;1399;-49
2021/05/28 08:37:15;;;;;;;;;;;;;;;20.67;73.32;100593.00;4994755;28;1304;-50
2021/05/28 08:39:41;;;;;;;;;;;;;;;20.51;72.49;100598.16;5024619;28;2015;-49
2021/05/28 08:42:09;;;;;;;;;;;;;;;20.36;74.03;100593.31;5002201;28;1637;-47
2021/05/28 08:44:35;;;;;;;;;;;;;;;20.27;74.99;100594.19;5005755;28;1860;-51
2021/05/28 08:47:03;;;;;;;;;;;;;;;20.52;73.05;100610.63;5011538;28;1108;-50
2021/05/28 08:49:30;;;;;;;;;;;;;;;20.52;72.89;100610.63;5010541;28;1952;-52
2021/05/28 08:51:58;;;;;;;;;;;;;;;20.55;74.26;100608.50;5010479;28;1910;-48
2021/05/28 08:54:24;;;;;;;;;;;;;;;20.55;74.28;100608.50;5010984;28;1283;-48
2021/05/28 08:56:50;;;;;;;;;;;;;;;20.70;74.12;100608.84;5011078;28;1512;-49
2021/05/28 08:59:16;;;;;;;;;;;;;;;20.86;73.28;100608.19;5009567;28;1334;-48
2021/05/28 09:01:42;;;;;;;;;;;;;;;20.92;73.24;100607.56;5009273;28;1553;-48
2021/05/28 09:04:11;;;;;;;;;;;;;;;20.97;73.76;100618.72;5009371;28;1483;-48
2021/05/28 09:06:38;;;;;;;;;;;;;;;20.90;73.02;100612.25;5010384;28;1407;-48
2021/05/28 09:09:11;;;;;;;;;;;;;;;20.89;72.95;100629.41;5010433;28;1547;-48
2021/05/28 09:11:50;;;;;;;;;;;;;;;20.86;73.21;100633.22;5010850;28;1945;-48
2021/05/28 09:14:28;;;;;;;;;;;;;;;20.92;73.05;100626.38;5006837;28;1842;-42
2021/05/28 09:16:54;;;;;;;;;;;;;;;20.94;72.93;100626.25;5009978;28;1926;-42
2021/05/28 09:19:23;;;;;;;;;;;;;;;20.93;72.56;100630.78;5009648;28;1426;-41
2021/05/28 09:21:54;;;;;;;;;;;;;;;20.97;73.06;100616.03;5009649;28;1360;-41
2021/05/28 09:24:26;;;;;;;;;;;;;;;21.03;73.51;100631.56;5008409;28;1528;-42
2021/05/28 09:26:52;;;;;;;;;;;;;;;21.05;72.90;100628.72;5010600;28;1522;-42
2021/05/28 09:29:19;;;;;;;;;;;;;;;21.08;73.55;100632.94;5015826;28;1331;-42
2021/05/28 09:31:46;;;;;;;;;;;;;;;21.09;72.68;100630.13;5008759;28;2292;-43
2021/05/28 09:34:12;;;;;;;;;;;;;;;21.06;73.11;100625.88;5007011;28;1690;-44
2021/05/28 09:36:40;;;;;;;;;;;;;;;21.09;73.90;100640.88;5008004;28;1452;-43
2021/05/28 09:39:08;;;;;;;;;;;;;;;21.08;73.77;100625.72;5010398;28;1162;-42
2021/05/28 13:31:07;;;;;;;;;;;;;;;21.05;76.24;100523.88;5107472;27;1587;-45
2021/05/28 13:33:54;;;;;;;;;;;;;;;20.99;72.41;100517.28;5077233;28;1673;-45
2021/05/28 13:36:28;;;;;;;;;;;;;;;20.92;71.28;100536.84;5074068;28;1569;-44
2021/05/28 13:38:58;;;;;;;;;;;;;;;20.85;71.83;100544.69;5085402;28;1973;-46
2021/05/28 13:41:32;;;;;;;;;;;;;;;20.85;72.36;100531.25;5090010;28;1891;-45
2021/05/28 13:43:59;;;;;;;;;;;;;;;20.82;71.57;100532.38;5088527;28;1921;-46
2021/05/28 13:46:32;;;;;;;;;;;;;;;20.77;71.11;100520.41;5078141;28;1533;-45
2021/05/28 13:48:58;;;;;;;;;;;;;;;20.80;71.08;100518.25;5094188;28;1526;-45
2021/05/28 13:51:25;;;;;;;;;;;;;;;20.78;70.74;100504.13;5083357;28;1422;-45
2021/05/28 13:54:00;;;;;;;;;;;;;;;20.81;70.39;100508.34;5078580;28;1542;-44
2021/05/28 13:56:29;;;;;;;;;;;;;;;20.81;70.54;100502.97;5083912;28;1543;-45
2021/05/28 13:59:03;;;;;;;;;;;;;;;20.81;70.24;100519.97;5075354;28;1914;-45
2021/05/28 14:01:35;;;;;;;;;;;;;;;20.88;71.24;100509.44;5082116;28;1649;-45
2021/05/28 14:04:05;;;;;;;;;;;;;;;21.01;70.23;100517.97;5088206;28;1597;-45
2021/05/28 14:06:32;;;;;;;;;;;;;;;21.02;70.83;100514.25;5086606;28;1610;-43
2021/05/28 14:09:02;;;;;;;;;;;;;;;20.96;70.31;100501.44;5080115;28;1840;-46
2021/05/28 14:11:30;;;;;;;;;;;;;;;20.92;71.03;100504.59;5080396;28;1603;-45
2021/05/28 14:13:56;;;;;;;;;;;;;;;20.91;70.35;100487.63;5083694;28;1611;-44
2021/05/28 14:16:29;;;;;;;;;;;;;;;20.89;71.02;100504.88;5084285;28;1921;-44
2021/05/28 14:21:37;;;;;;;;;;;;;;;21.04;69.56;100509.56;5061095;28;1886;-44
2021/05/28 14:24:04;;;;;;;;;;;;;;;20.94;69.83;100503.44;5063448;28;1660;-44
2021/05/28 14:26:53;;;;;;;;;;;;;;;20.93;69.83;100509.81;5066236;28;1777;-44
2021/05/28 14:29:20;;;;;;;;;;;;;;;20.93;69.74;100512.50;5057636;28;1973;-45
2021/05/28 14:31:55;;;;;;;;;;;;;;;20.93;68.73;100511.66;5052858;28;1643;-44
2021/05/28 14:34:34;;;;;;;;;;;;;;;20.77;69.71;100517.72;5050783;28;1678;-44
2021/05/28 14:37:22;;;;;;;;;;;;;;;20.73;69.60;100501.06;5044025;28;1630;-44
2021/05/28 14:39:51;;;;;;;;;;;;;;;20.69;69.21;100497.00;5036567;28;1914;-45
2021/05/28 14:42:17;;;;;;;;;;;;;;;20.71;69.24;100500.38;5047868;28;1573;-45
2021/05/28 14:44:49;;;;;;;;;;;;;;;20.71;68.75;100504.91;5049368;28;1632;-44
2021/05/28 14:47:15;;;;;;;;;;;;;;;20.68;68.72;100506.06;5046412;28;1555;-44
2021/05/28 15:28:10;;;;;;;;;;;;;;;20.90;70.33;100469.81;5083681;27;1584;-43
2021/05/28 15:30:44;;;;;;;;;;;;;;;20.94;71.44;100478.41;5085135;28;2691;-43
2021/05/28 15:33:13;;;;;;;;;;;;;;;20.92;70.63;100483.09;5077027;28;2002;-44
2021/05/28 15:35:43;;;;;;;;;;;;;;;20.97;71.50;100481.63;5085821;28;1902;-46
2021/05/28 15:38:12;;;;;;;;;;;;;;;21.00;71.35;100497.44;5081644;28;1606;-46
2021/05/28 15:40:39;;;;;;;;;;;;;;;20.96;71.43;100471.88;5085976;28;1506;-46
2021/05/28 15:43:20;;;;;;;;;;;;;;;20.96;71.88;100471.03;5082322;28;1558;-46
2021/05/28 15:45:50;;;;;;;;;;;;;;;20.96;72.70;100476.41;5086436;28;1632;-46
2021/05/28 15:48:22;;;;;;;;;;;;;;;20.93;73.45;100501.75;5084835;28;1949;-45
2021/05/28 15:50:48;;;;;;;;;;;;;;;20.95;74.23;100494.38;5085819;28;1560;-46
2021/05/28 15:53:15;;;;;;;;;;;;;;;21.01;73.39;100501.00;5086913;28;1859;-46
2021/05/28 15:55:42;;;;;;;;;;;;;;;20.98;73.69;100488.69;5085701;28;1961;-46
2021/05/28 15:58:11;;;;;;;;;;;;;;;20.98;72.75;100499.44;5085508;28;1652;-45
2021/05/28 16:03:35;;;;;;;;;;;;;;;20.93;73.01;100493.69;5086141;28;2498;-45
2021/05/28 16:06:10;;;;;;;;;;;;;;;20.96;73.57;100477.25;5084352;28;1726;-45
2021/05/28 16:08:36;;;;;;;;;;;;;;;20.97;73.34;100460.13;5079676;28;1919;-46
2021/05/28 16:11:02;;;;;;;;;;;;;;;20.94;72.66;100481.94;5084350;28;1663;-46
2021/05/28 16:13:31;;;;;;;;;;;;;;;20.98;73.38;100472.56;5084331;28;1393;-45
2021/05/28 16:16:00;;;;;;;;;;;;;;;20.98;73.02;100460.97;5071334;28;1902;-46
2021/05/28 16:18:26;;;;;;;;;;;;;;;20.97;73.34;100481.63;5074673;28;1629;-46
2021/05/28 16:20:53;;;;;;;;;;;;;;;20.96;74.02;100474.56;5085227;28;2517;-47
2021/05/28 16:23:23;;;;;;;;;;;;;;;21.02;74.07;100457.78;5076965;28;1734;-46
2021/05/28 16:25:49;;;;;;;;;;;;;;;21.02;73.58;100479.31;5083375;28;1610;-46
2021/05/28 16:28:19;;;;;;;;;;;;;;;20.99;73.41;100452.75;5071009;28;1547;-49
2021/05/28 16:30:46;;;;;;;;;;;;;;;21.04;73.66;100466.56;5068440;28;1619;-47
2021/05/28 16:33:14;;;;;;;;;;;;;;;21.03;74.70;100474.78;5072508;28;1978;-46
2021/05/28 16:38:28;;;;;;;;;;;;;;;21.01;73.54;100464.19;5070560;28;3156;-45
2021/05/28 16:41:06;;;;;;;;;;;;;;;21.06;73.22;100469.94;5069833;28;1619;-46
2021/05/28 16:43:35;;;;;;;;;;;;;;;21.09;72.95;100455.34;5074501;28;1691;-45
2021/05/28 16:46:01;;;;;;;;;;;;;;;21.11;73.58;100450.66;5077410;28;1492;-46
2021/05/28 16:48:28;;;;;;;;;;;;;;;21.25;75.78;100441.16;5074556;28;1452;-46
2021/05/28 16:50:57;;;;;;;;;;;;;;;21.11;72.36;100482.06;5072747;28;1588;-47
2021/05/28 16:53:25;;;;;;;;;;;;;;;21.00;70.21;100477.78;5071346;28;1727;-46
2021/05/28 16:56:07;;;;;;;;;;;;;;;20.91;70.59;100471.50;5064025;28;1981;-47
2021/05/28 16:58:34;;;;;;;;;;;;;;;20.86;69.73;100480.00;5065916;28;1542;-48
2021/05/28 17:01:02;;;;;;;;;;;;;;;20.85;69.99;100477.50;5069613;28;1759;-46
2021/05/28 17:03:36;;;;;;;;;;;;;;;20.90;69.76;100477.88;5062774;28;1648;-46
2021/05/28 17:06:05;;;;;;;;;;;;;;;20.90;71.05;100477.03;5063583;28;1835;-46
2021/05/28 17:08:36;;;;;;;;;;;;;;;20.92;72.21;100480.41;5058363;28;1464;-47
2021/05/28 17:11:16;;;;;;;;;;;;;;;20.91;71.94;100455.38;5056990;28;1545;-46
2021/05/28 17:13:43;;;;;;;;;;;;;;;20.94;73.71;100476.56;5061898;28;1431;-47
2021/05/28 17:16:12;;;;;;;;;;;;;;;20.92;74.33;100494.69;5056845;28;1918;-46
2021/05/28 17:18:40;;;;;;;;;;;;;;;20.90;74.38;100477.03;5058362;28;1552;-46
2021/05/28 17:21:06;;;;;;;;;;;;;;;20.89;76.39;100468.13;5066698;28;1621;-46
2021/05/28 17:23:33;;;;;;;;;;;;;;;20.86;77.21;100468.44;5072023;28;1771;-46
2021/05/28 17:25:59;;;;;;;;;;;;;;;20.83;77.07;100479.47;5061939;28;1590;-46
2021/05/28 17:28:26;;;;;;;;;;;;;;;20.81;77.81;100470.72;5068998;28;1584;-46